createdAt,value
2024-05-09T00:03:00.894Z,5.20
2024-05-09T00:08:06.017Z,4.90
2024-05-09T00:13:10.908Z,5.20
2024-05-09T00:18:14.355Z,5.70
2024-05-09T00:23:17.247Z,5.60
2024-05-09T00:28:20.115Z,5.30
2024-05-09T00:33:23.150Z,5.30
2024-05-09T00:38:26.046Z,4.60
2024-05-09T00:43:28.818Z,4.60
2024-05-09T00:48:32.016Z,4.60
2024-05-09T00:53:35.127Z,4.50
2024-05-09T00:58:38.850Z,5.40
2024-05-09T01:03:41.864Z,5.30
2024-05-09T01:08:44.834Z,4.30
2024-05-09T01:13:47.627Z,4.90
2024-05-09T01:18:50.613Z,4.70
2024-05-09T01:23:53.483Z,5.10
2024-05-09T01:28:56.106Z,4.70
2024-05-09T01:33:59.031Z,4.60
2024-05-09T01:39:02.016Z,5.20
2024-05-09T01:44:04.858Z,4.40
2024-05-09T01:49:08.262Z,5.00
2024-05-09T01:54:11.186Z,4.40
2024-05-09T01:59:14.020Z,5.10
2024-05-09T02:04:17.081Z,5.50
2024-05-09T02:09:19.926Z,4.70
2024-05-09T02:14:22.895Z,5.30
2024-05-09T02:19:25.788Z,4.80
2024-05-09T02:24:28.532Z,5.10
2024-05-09T02:29:31.484Z,5.20
2024-05-09T02:34:34.362Z,4.60
2024-05-09T02:39:37.038Z,4.60
2024-05-09T02:44:39.864Z,4.50
2024-05-09T02:49:42.547Z,5.00
2024-05-09T02:54:45.446Z,5.20
2024-05-09T02:59:48.137Z,4.90
2024-05-09T03:04:50.935Z,5.20
2024-05-09T03:09:53.739Z,5.20
2024-05-09T03:14:56.442Z,4.90
2024-05-09T03:19:59.837Z,5.30
2024-05-09T03:25:02.764Z,4.80
2024-05-09T03:30:07.530Z,4.10
2024-05-09T03:35:10.457Z,4.80
2024-05-09T03:40:20.472Z,5.90
2024-05-09T03:45:26.474Z,7.60
2024-05-09T03:50:33.945Z,7.40
2024-05-09T03:55:39.062Z,6.50
2024-05-09T04:00:44.907Z,4.80
2024-05-09T04:05:47.864Z,5.90
2024-05-09T04:10:50.639Z,4.90
2024-05-09T04:15:53.400Z,4.50
2024-05-09T04:20:56.937Z,5.30
2024-05-09T04:26:04.200Z,4.70
2024-05-09T04:31:06.926Z,4.40
2024-05-09T04:36:09.625Z,4.50
2024-05-09T04:41:12.503Z,4.30
2024-05-09T04:46:15.161Z,4.90
2024-05-09T04:51:17.868Z,5.00
2024-05-09T04:56:20.783Z,5.30
2024-05-09T05:01:23.597Z,6.50
2024-05-09T05:06:26.276Z,6.30
2024-05-09T05:11:29.034Z,5.40
2024-05-09T05:16:31.731Z,5.40
2024-05-09T05:21:34.442Z,4.50
2024-05-09T05:26:37.262Z,4.50
2024-05-09T05:31:43.460Z,5.30
2024-05-09T05:36:46.309Z,4.60
2024-05-09T05:41:49.073Z,4.50
2024-05-09T05:46:51.953Z,4.40
2024-05-09T05:51:54.688Z,4.00
2024-05-09T05:56:58.918Z,3.70
2024-05-09T06:02:02.237Z,3.70
2024-05-09T06:07:07.496Z,3.90
2024-05-09T06:12:10.409Z,4.10
2024-05-09T06:17:22.374Z,3.70
2024-05-09T06:22:25.450Z,4.00
2024-05-09T06:27:28.310Z,3.50
2024-05-09T06:32:31.239Z,3.40
2024-05-09T06:37:37.112Z,9.00
2024-05-09T06:42:39.925Z,5.50
2024-05-09T06:47:42.938Z,4.20
2024-05-09T06:52:48.738Z,3.70
2024-05-09T06:57:51.683Z,5.60
2024-05-09T07:02:54.830Z,3.40
2024-05-09T07:07:59.417Z,3.10
2024-05-09T07:13:02.438Z,3.20
2024-05-09T07:18:17.153Z,5.70
2024-05-09T07:23:21.561Z,4.30
2024-05-09T07:28:24.996Z,3.60
2024-05-09T07:33:28.189Z,3.10
2024-05-09T07:38:31.310Z,3.90
2024-05-09T07:43:35.933Z,4.30
2024-05-09T07:53:50.650Z,4.00
2024-05-09T07:58:56.577Z,3.40
2024-05-09T08:03:59.514Z,2.50
2024-05-09T08:09:07.684Z,3.90
2024-05-09T08:14:13.481Z,3.20
2024-05-09T08:19:16.174Z,3.50
2024-05-09T08:24:18.903Z,2.40
2024-05-09T08:29:22.106Z,2.40
2024-05-09T08:34:26.238Z,2.80
2024-05-09T08:39:29.734Z,2.60
2024-05-09T08:44:37.308Z,3.10
2024-05-09T08:49:41.657Z,3.30
2024-05-09T08:54:46.332Z,2.50
2024-05-09T08:59:50.843Z,2.50
2024-05-09T09:05:05.457Z,2.50
2024-05-09T09:10:08.816Z,2.30
2024-05-09T09:15:11.514Z,2.20
2024-05-09T09:20:18.888Z,2.20
2024-05-09T09:25:25.763Z,2.70
2024-05-09T09:30:36.168Z,2.60
2024-05-09T09:54:44.728Z,2.70
2024-05-09T09:59:50.448Z,2.40
2024-05-09T10:04:54.598Z,2.70
2024-05-09T10:09:57.911Z,4.80
2024-05-09T10:15:07.897Z,3.30
2024-05-09T10:20:18.318Z,2.60
2024-05-09T10:25:25.027Z,2.30
2024-05-09T10:30:34.042Z,3.40
2024-05-09T10:35:39.352Z,2.70
2024-05-09T10:40:44.293Z,3.90
2024-05-09T10:45:50.509Z,2.50
2024-05-09T10:50:53.348Z,2.10
2024-05-09T10:56:06.107Z,2.20
2024-05-09T11:01:09.837Z,4.60
2024-05-09T11:06:14.865Z,2.10
2024-05-09T11:11:17.772Z,2.80
2024-05-09T11:16:21.254Z,2.20
2024-05-09T11:21:24.672Z,2.10
2024-05-09T11:26:29.249Z,2.10
2024-05-09T11:31:32.083Z,2.10
2024-05-09T11:36:34.896Z,2.20
2024-05-09T11:41:38.859Z,2.30
2024-05-09T11:52:21.164Z,2.00
2024-05-09T11:57:24.502Z,2.00
2024-05-09T12:02:27.302Z,2.00
2024-05-09T12:07:30.152Z,2.00
2024-05-09T12:12:34.262Z,2.20
2024-05-09T12:17:38.243Z,2.40
2024-05-09T12:22:40.998Z,2.40
2024-05-09T12:27:43.914Z,2.30
2024-05-09T12:32:46.694Z,2.40
2024-05-09T12:37:49.607Z,2.10
2024-05-09T12:42:52.374Z,2.10
2024-05-09T12:47:55.446Z,1.90
2024-05-09T12:52:58.459Z,3.40
2024-05-09T12:58:01.261Z,2.50
2024-05-09T13:03:04.407Z,2.50
2024-05-09T13:08:08.117Z,2.10
2024-05-09T13:13:11.451Z,2.50
2024-05-09T13:18:14.257Z,2.10
2024-05-09T13:23:16.940Z,2.50
2024-05-09T13:28:19.682Z,2.40
2024-05-09T13:33:22.847Z,6.00
2024-05-09T13:38:25.983Z,2.20
2024-05-09T13:43:28.767Z,2.50
2024-05-09T13:48:31.834Z,2.30
2024-05-09T13:53:34.592Z,2.70
2024-05-09T13:58:37.404Z,2.30
2024-05-09T14:03:40.275Z,2.60
2024-05-09T14:08:46.938Z,2.10
2024-05-09T14:13:49.793Z,2.00
2024-05-09T14:18:55.510Z,2.40
2024-05-09T14:24:01.222Z,2.20
2024-05-09T14:29:03.951Z,2.50
2024-05-09T14:34:06.767Z,2.80
2024-05-09T14:39:09.743Z,2.30
2024-05-09T14:44:12.845Z,2.20
2024-05-09T14:49:15.557Z,2.50
2024-05-09T14:54:18.352Z,2.30
2024-05-09T14:59:20.982Z,2.60
2024-05-09T15:04:23.996Z,2.40
2024-05-09T15:09:26.951Z,2.30
2024-05-09T15:14:29.755Z,2.10
2024-05-09T15:19:32.931Z,2.40
2024-05-09T15:24:36.098Z,2.20
2024-05-09T15:29:39.314Z,2.20
2024-05-09T15:34:42.781Z,2.30
2024-05-09T15:39:45.534Z,2.40
2024-05-09T15:44:53.121Z,2.20
2024-05-09T15:49:56.390Z,2.40
2024-05-09T15:54:59.552Z,2.30
2024-05-09T16:00:02.721Z,2.40
2024-05-09T16:05:07.637Z,7.30
2024-05-09T16:10:13.209Z,2.60
2024-05-09T16:15:18.929Z,2.50
2024-05-09T16:20:33.977Z,3.20
2024-05-09T16:25:47.725Z,2.30
2024-05-09T16:30:51.337Z,2.20
2024-05-09T16:35:54.023Z,2.10
2024-05-09T16:40:56.828Z,2.10
2024-05-09T16:45:59.621Z,2.40
2024-05-09T16:51:02.306Z,2.10
2024-05-09T16:56:06.345Z,2.20
2024-05-09T17:01:09.083Z,2.10
2024-05-09T17:06:12.232Z,2.30
2024-05-09T17:11:15.569Z,2.10
2024-05-09T17:16:18.756Z,2.30
2024-05-09T17:21:21.665Z,2.40
2024-05-09T17:26:24.562Z,2.20
2024-05-09T17:31:27.454Z,2.20
2024-05-09T17:36:30.449Z,2.40
2024-05-09T17:41:33.169Z,6.00
2024-05-09T17:46:36.209Z,8.10
2024-05-09T17:51:39.019Z,7.00
2024-05-09T17:56:44.343Z,5.90
2024-05-09T18:01:47.244Z,6.10
2024-05-09T18:06:50.839Z,5.80
2024-05-09T18:11:54.001Z,5.20
2024-05-09T18:16:56.898Z,5.50
2024-05-09T18:21:59.582Z,4.90
2024-05-09T18:27:02.704Z,4.10
2024-05-09T18:32:06.031Z,4.10
2024-05-09T18:37:09.779Z,3.40
2024-05-09T18:42:12.624Z,3.80
2024-05-09T18:47:19.315Z,3.70
2024-05-09T18:52:23.872Z,3.40
2024-05-09T18:57:26.555Z,4.50
2024-05-09T19:02:29.467Z,9.90
2024-05-09T19:07:32.257Z,7.10
2024-05-09T19:12:34.992Z,39.60
2024-05-09T19:17:37.880Z,26.30
2024-05-09T19:22:40.663Z,6.90
2024-05-09T19:27:43.684Z,5.30
2024-05-09T19:32:46.594Z,5.30
2024-05-09T19:37:51.539Z,4.10
2024-05-09T19:42:54.259Z,4.30
2024-05-09T19:47:57.527Z,4.50
2024-05-09T19:53:00.338Z,4.80
2024-05-09T19:58:05.383Z,4.50
2024-05-09T20:03:09.919Z,4.50
2024-05-09T20:08:13.444Z,4.70
2024-05-09T20:13:16.304Z,5.00
2024-05-09T20:18:19.231Z,4.30
2024-05-09T20:23:22.068Z,5.10
2024-05-09T20:28:24.799Z,4.70
2024-05-09T20:33:28.700Z,4.80
2024-05-09T20:38:31.399Z,4.80
2024-05-09T20:43:34.122Z,4.60
2024-05-09T20:48:37.082Z,5.10
2024-05-09T20:53:39.891Z,5.50
2024-05-09T20:58:42.588Z,5.00
2024-05-09T21:03:45.373Z,8.00
2024-05-09T21:08:48.436Z,11.50
2024-05-09T21:13:51.357Z,11.70
2024-05-09T21:18:54.037Z,10.00
2024-05-09T21:23:56.795Z,10.10
2024-05-09T21:28:59.615Z,9.50
2024-05-09T21:34:02.428Z,9.00
2024-05-09T21:39:05.407Z,7.60
2024-05-09T21:44:08.214Z,7.10
2024-05-09T21:49:11.175Z,6.50
2024-05-09T21:54:14.144Z,6.50
2024-05-09T21:59:16.914Z,5.90
2024-05-09T22:04:19.735Z,5.90
2024-05-09T22:09:22.717Z,5.90
2024-05-09T22:14:25.518Z,6.40
2024-05-09T22:19:29.813Z,8.00
2024-05-09T22:24:32.939Z,6.50
2024-05-09T22:29:35.668Z,11.40
2024-05-09T22:34:38.430Z,10.40
2024-05-09T22:39:41.188Z,7.40
2024-05-09T22:44:43.968Z,6.60
2024-05-09T22:49:46.612Z,6.90
2024-05-09T22:54:49.433Z,8.10
2024-05-09T22:59:52.476Z,6.80
2024-05-09T23:04:55.398Z,6.60
2024-05-09T23:09:58.564Z,7.00
2024-05-09T23:15:01.293Z,6.50
2024-05-09T23:20:06.852Z,6.00
2024-05-09T23:25:09.789Z,6.00
2024-05-09T23:30:18.318Z,6.10
2024-05-09T23:35:29.084Z,5.50
2024-05-09T23:45:37.743Z,5.30
2024-05-09T23:50:41.109Z,6.20
2024-05-09T23:55:44.585Z,5.60
